sensor_id;sensor_type;location;lat;lon;timestamp;P1;durP1;ratioP1;P2;durP2;ratioP2
20340;SDS011;10328;50.042;8.238;2022-10-01T00:00:25;2.40;;;2.17;;
20340;SDS011;10328;50.042;8.238;2022-10-01T00:02:52;2.80;;;1.60;;
20340;SDS011;10328;50.042;8.238;2022-10-01T00:05:22;1.63;;;1.40;;
20340;SDS011;10328;50.042;8.238;2022-10-01T00:07:48;2.33;;;1.77;;
20340;SDS011;10328;50.042;8.238;2022-10-01T00:10:15;3.03;;;1.90;;
20340;SDS011;10328;50.042;8.238;2022-10-01T00:12:43;2.07;;;1.63;;
20340;SDS011;10328;50.042;8.238;2022-10-01T00:15:11;2.00;;;1.40;;
20340;SDS011;10328;50.042;8.238;2022-10-01T00:17:39;1.67;;;1.40;;
20340;SDS011;10328;50.042;8.238;2022-10-01T00:20:06;2.60;;;2.00;;
20340;SDS011;10328;50.042;8.238;2022-10-01T00:22:39;1.90;;;1.60;;
20340;SDS011;10328;50.042;8.238;2022-10-01T00:25:05;1.73;;;1.37;;
20340;SDS011;10328;50.042;8.238;2022-10-01T00:27:32;1.83;;;1.50;;
20340;SDS011;10328;50.042;8.238;2022-10-01T00:30:02;2.00;;;1.63;;
20340;SDS011;10328;50.042;8.238;2022-10-01T00:32:29;1.67;;;1.57;;
20340;SDS011;10328;50.042;8.238;2022-10-01T00:34:58;2.90;;;2.00;;
20340;SDS011;10328;50.042;8.238;2022-10-01T00:37:25;2.80;;;1.53;;
20340;SDS011;10328;50.042;8.238;2022-10-01T00:39:51;2.37;;;2.10;;
20340;SDS011;10328;50.042;8.238;2022-10-01T00:42:19;1.80;;;1.50;;
20340;SDS011;10328;50.042;8.238;2022-10-01T00:44:49;1.87;;;1.47;;
20340;SDS011;10328;50.042;8.238;2022-10-01T00:49:47;2.00;;;1.43;;
20340;SDS011;10328;50.042;8.238;2022-10-01T00:52:16;1.50;;;1.37;;
20340;SDS011;10328;50.042;8.238;2022-10-01T00:54:45;1.77;;;1.40;;
20340;SDS011;10328;50.042;8.238;2022-10-01T00:57:15;2.10;;;1.80;;
20340;SDS011;10328;50.042;8.238;2022-10-01T00:59:42;1.63;;;1.30;;
20340;SDS011;10328;50.042;8.238;2022-10-01T01:02:08;1.87;;;1.50;;
20340;SDS011;10328;50.042;8.238;2022-10-01T01:04:36;1.50;;;1.40;;
20340;SDS011;10328;50.042;8.238;2022-10-01T01:07:05;1.90;;;1.50;;
20340;SDS011;10328;50.042;8.238;2022-10-01T01:09:33;1.73;;;1.43;;
20340;SDS011;10328;50.042;8.238;2022-10-01T01:14:41;1.80;;;1.50;;
20340;SDS011;10328;50.042;8.238;2022-10-01T01:17:11;2.53;;;1.50;;
20340;SDS011;10328;50.042;8.238;2022-10-01T01:22:23;1.70;;;1.60;;
20340;SDS011;10328;50.042;8.238;2022-10-01T01:24:55;2.30;;;1.67;;
20340;SDS011;10328;50.042;8.238;2022-10-01T01:27:32;1.90;;;1.70;;
20340;SDS011;10328;50.042;8.238;2022-10-01T01:30:09;1.57;;;1.40;;
20340;SDS011;10328;50.042;8.238;2022-10-01T01:32:42;1.63;;;1.33;;
20340;SDS011;10328;50.042;8.238;2022-10-01T01:35:18;1.90;;;1.70;;
20340;SDS011;10328;50.042;8.238;2022-10-01T01:37:53;2.67;;;1.70;;
20340;SDS011;10328;50.042;8.238;2022-10-01T01:40:22;1.67;;;1.40;;
20340;SDS011;10328;50.042;8.238;2022-10-01T01:42:49;3.30;;;1.70;;
20340;SDS011;10328;50.042;8.238;2022-10-01T01:45:19;2.77;;;1.57;;
20340;SDS011;10328;50.042;8.238;2022-10-01T01:47:53;2.20;;;1.43;;
20340;SDS011;10328;50.042;8.238;2022-10-01T01:50:21;2.57;;;1.47;;
20340;SDS011;10328;50.042;8.238;2022-10-01T01:52:50;1.90;;;1.40;;
20340;SDS011;10328;50.042;8.238;2022-10-01T01:55:20;1.73;;;1.40;;
20340;SDS011;10328;50.042;8.238;2022-10-01T01:57:48;2.13;;;1.37;;
20340;SDS011;10328;50.042;8.238;2022-10-01T02:00:14;2.40;;;1.50;;
20340;SDS011;10328;50.042;8.238;2022-10-01T02:02:42;1.63;;;1.50;;
20340;SDS011;10328;50.042;8.238;2022-10-01T02:05:17;1.97;;;1.60;;
20340;SDS011;10328;50.042;8.238;2022-10-01T02:13:17;1.77;;;1.40;;
20340;SDS011;10328;50.042;8.238;2022-10-01T02:18:59;1.73;;;1.30;;
20340;SDS011;10328;50.042;8.238;2022-10-01T02:26:40;1.77;;;1.43;;
20340;SDS011;10328;50.042;8.238;2022-10-01T02:29:08;2.00;;;1.67;;
20340;SDS011;10328;50.042;8.238;2022-10-01T02:31:38;1.77;;;1.50;;
20340;SDS011;10328;50.042;8.238;2022-10-01T02:34:05;3.70;;;1.47;;
20340;SDS011;10328;50.042;8.238;2022-10-01T02:36:37;1.70;;;1.50;;
20340;SDS011;10328;50.042;8.238;2022-10-01T02:39:06;1.80;;;1.50;;
20340;SDS011;10328;50.042;8.238;2022-10-01T02:41:34;1.60;;;1.40;;
20340;SDS011;10328;50.042;8.238;2022-10-01T02:44:03;1.60;;;1.40;;
20340;SDS011;10328;50.042;8.238;2022-10-01T02:46:53;1.50;;;1.40;;
20340;SDS011;10328;50.042;8.238;2022-10-01T02:49:25;1.30;;;1.20;;
20340;SDS011;10328;50.042;8.238;2022-10-01T02:52:11;1.50;;;1.40;;
20340;SDS011;10328;50.042;8.238;2022-10-01T02:54:53;2.07;;;1.63;;
20340;SDS011;10328;50.042;8.238;2022-10-01T02:57:22;2.43;;;1.50;;
20340;SDS011;10328;50.042;8.238;2022-10-01T02:59:49;1.40;;;1.07;;
20340;SDS011;10328;50.042;8.238;2022-10-01T03:02:16;2.10;;;1.40;;
20340;SDS011;10328;50.042;8.238;2022-10-01T03:04:43;1.57;;;1.30;;
20340;SDS011;10328;50.042;8.238;2022-10-01T03:07:09;2.37;;;1.63;;
20340;SDS011;10328;50.042;8.238;2022-10-01T03:09:35;1.50;;;1.40;;
20340;SDS011;10328;50.042;8.238;2022-10-01T03:12:02;1.90;;;1.50;;
20340;SDS011;10328;50.042;8.238;2022-10-01T03:14:28;1.80;;;1.50;;
20340;SDS011;10328;50.042;8.238;2022-10-01T03:16:55;2.27;;;1.27;;
20340;SDS011;10328;50.042;8.238;2022-10-01T03:19:22;2.03;;;1.83;;
20340;SDS011;10328;50.042;8.238;2022-10-01T03:21:48;1.63;;;1.30;;
20340;SDS011;10328;50.042;8.238;2022-10-01T03:24:14;1.73;;;1.50;;
20340;SDS011;10328;50.042;8.238;2022-10-01T03:26:41;2.00;;;1.50;;
20340;SDS011;10328;50.042;8.238;2022-10-01T03:29:07;1.50;;;1.40;;
20340;SDS011;10328;50.042;8.238;2022-10-01T03:31:34;1.60;;;1.43;;
20340;SDS011;10328;50.042;8.238;2022-10-01T03:34:01;1.97;;;1.40;;
20340;SDS011;10328;50.042;8.238;2022-10-01T03:36:28;2.20;;;1.60;;
20340;SDS011;10328;50.042;8.238;2022-10-01T03:38:55;1.50;;;1.30;;
20340;SDS011;10328;50.042;8.238;2022-10-01T03:41:21;1.63;;;1.30;;
20340;SDS011;10328;50.042;8.238;2022-10-01T03:43:47;2.23;;;1.47;;
20340;SDS011;10328;50.042;8.238;2022-10-01T03:46:14;1.50;;;1.30;;
20340;SDS011;10328;50.042;8.238;2022-10-01T03:48:40;1.50;;;1.30;;
20340;SDS011;10328;50.042;8.238;2022-10-01T03:51:06;1.67;;;1.40;;
20340;SDS011;10328;50.042;8.238;2022-10-01T03:53:33;2.10;;;1.50;;
20340;SDS011;10328;50.042;8.238;2022-10-01T03:55:59;2.40;;;1.70;;
20340;SDS011;10328;50.042;8.238;2022-10-01T03:58:26;2.33;;;1.63;;
20340;SDS011;10328;50.042;8.238;2022-10-01T04:00:52;1.40;;;1.30;;
20340;SDS011;10328;50.042;8.238;2022-10-01T04:03:21;1.43;;;1.17;;
20340;SDS011;10328;50.042;8.238;2022-10-01T04:05:47;1.60;;;1.20;;
20340;SDS011;10328;50.042;8.238;2022-10-01T04:08:14;1.87;;;1.43;;
20340;SDS011;10328;50.042;8.238;2022-10-01T04:10:40;2.03;;;1.60;;
20340;SDS011;10328;50.042;8.238;2022-10-01T04:13:07;1.70;;;1.50;;
20340;SDS011;10328;50.042;8.238;2022-10-01T04:15:33;1.57;;;1.43;;
20340;SDS011;10328;50.042;8.238;2022-10-01T04:18:00;1.70;;;1.40;;
20340;SDS011;10328;50.042;8.238;2022-10-01T04:20:34;2.07;;;1.60;;
20340;SDS011;10328;50.042;8.238;2022-10-01T04:23:02;1.70;;;1.37;;
20340;SDS011;10328;50.042;8.238;2022-10-01T04:25:29;2.17;;;1.50;;
20340;SDS011;10328;50.042;8.238;2022-10-01T04:28:00;2.30;;;1.17;;
20340;SDS011;10328;50.042;8.238;2022-10-01T04:30:29;1.40;;;1.23;;
20340;SDS011;10328;50.042;8.238;2022-10-01T04:32:58;2.00;;;1.40;;
20340;SDS011;10328;50.042;8.238;2022-10-01T04:35:25;3.87;;;2.63;;
20340;SDS011;10328;50.042;8.238;2022-10-01T04:37:59;2.00;;;1.60;;
20340;SDS011;10328;50.042;8.238;2022-10-01T04:40:28;2.40;;;1.50;;
20340;SDS011;10328;50.042;8.238;2022-10-01T04:43:00;2.13;;;1.67;;
20340;SDS011;10328;50.042;8.238;2022-10-01T04:45:26;2.70;;;1.77;;
20340;SDS011;10328;50.042;8.238;2022-10-01T04:47:53;1.97;;;1.70;;
20340;SDS011;10328;50.042;8.238;2022-10-01T04:50:21;1.83;;;1.57;;
20340;SDS011;10328;50.042;8.238;2022-10-01T04:52:49;3.37;;;2.50;;
20340;SDS011;10328;50.042;8.238;2022-10-01T04:55:16;2.93;;;2.10;;
20340;SDS011;10328;50.042;8.238;2022-10-01T04:57:43;3.03;;;2.33;;
20340;SDS011;10328;50.042;8.238;2022-10-01T05:00:11;4.37;;;2.13;;
20340;SDS011;10328;50.042;8.238;2022-10-01T05:02:39;3.10;;;2.30;;
20340;SDS011;10328;50.042;8.238;2022-10-01T05:05:05;4.20;;;2.50;;
20340;SDS011;10328;50.042;8.238;2022-10-01T05:07:33;3.83;;;2.90;;
20340;SDS011;10328;50.042;8.238;2022-10-01T05:09:59;3.70;;;2.50;;
20340;SDS011;10328;50.042;8.238;2022-10-01T05:12:26;4.60;;;3.00;;
20340;SDS011;10328;50.042;8.238;2022-10-01T05:14:54;1.90;;;1.70;;
20340;SDS011;10328;50.042;8.238;2022-10-01T05:17:21;1.77;;;1.57;;
20340;SDS011;10328;50.042;8.238;2022-10-01T05:19:47;2.13;;;1.50;;
20340;SDS011;10328;50.042;8.238;2022-10-01T05:22:14;1.60;;;1.50;;
20340;SDS011;10328;50.042;8.238;2022-10-01T05:24:41;1.63;;;1.40;;
20340;SDS011;10328;50.042;8.238;2022-10-01T05:27:11;1.57;;;1.37;;
20340;SDS011;10328;50.042;8.238;2022-10-01T05:29:38;2.40;;;1.17;;
20340;SDS011;10328;50.042;8.238;2022-10-01T05:32:07;1.27;;;1.17;;
20340;SDS011;10328;50.042;8.238;2022-10-01T05:34:34;1.40;;;1.23;;
20340;SDS011;10328;50.042;8.238;2022-10-01T05:37:00;1.73;;;1.30;;
20340;SDS011;10328;50.042;8.238;2022-10-01T05:39:28;1.73;;;1.40;;
20340;SDS011;10328;50.042;8.238;2022-10-01T05:41:58;1.47;;;1.20;;
20340;SDS011;10328;50.042;8.238;2022-10-01T05:44:31;1.30;;;1.20;;
20340;SDS011;10328;50.042;8.238;2022-10-01T05:47:05;1.50;;;1.30;;
20340;SDS011;10328;50.042;8.238;2022-10-01T05:49:32;1.67;;;1.20;;
20340;SDS011;10328;50.042;8.238;2022-10-01T05:51:59;1.60;;;1.37;;
20340;SDS011;10328;50.042;8.238;2022-10-01T05:54:26;1.70;;;1.37;;
20340;SDS011;10328;50.042;8.238;2022-10-01T05:56:54;1.50;;;1.40;;
20340;SDS011;10328;50.042;8.238;2022-10-01T05:59:21;2.97;;;2.17;;
20340;SDS011;10328;50.042;8.238;2022-10-01T06:01:48;2.23;;;1.80;;
20340;SDS011;10328;50.042;8.238;2022-10-01T06:04:14;2.97;;;2.30;;
20340;SDS011;10328;50.042;8.238;2022-10-01T06:06:40;2.10;;;1.50;;
20340;SDS011;10328;50.042;8.238;2022-10-01T06:09:07;4.97;;;2.60;;
20340;SDS011;10328;50.042;8.238;2022-10-01T06:11:37;2.87;;;2.40;;
20340;SDS011;10328;50.042;8.238;2022-10-01T06:14:04;2.20;;;2.00;;
20340;SDS011;10328;50.042;8.238;2022-10-01T06:16:31;2.40;;;2.00;;
20340;SDS011;10328;50.042;8.238;2022-10-01T06:18:57;4.80;;;2.47;;
20340;SDS011;10328;50.042;8.238;2022-10-01T06:21:24;1.90;;;1.70;;
20340;SDS011;10328;50.042;8.238;2022-10-01T06:23:50;5.07;;;2.70;;
20340;SDS011;10328;50.042;8.238;2022-10-01T06:26:17;3.10;;;2.27;;
20340;SDS011;10328;50.042;8.238;2022-10-01T06:28:44;4.90;;;2.80;;
20340;SDS011;10328;50.042;8.238;2022-10-01T06:31:10;3.37;;;2.30;;
20340;SDS011;10328;50.042;8.238;2022-10-01T06:33:37;2.77;;;1.93;;
20340;SDS011;10328;50.042;8.238;2022-10-01T06:36:03;3.60;;;2.50;;
20340;SDS011;10328;50.042;8.238;2022-10-01T06:38:29;2.73;;;2.27;;
20340;SDS011;10328;50.042;8.238;2022-10-01T06:40:56;3.07;;;2.10;;
20340;SDS011;10328;50.042;8.238;2022-10-01T06:43:24;2.80;;;1.97;;
20340;SDS011;10328;50.042;8.238;2022-10-01T06:45:52;1.50;;;1.33;;
20340;SDS011;10328;50.042;8.238;2022-10-01T06:48:18;2.10;;;1.90;;
20340;SDS011;10328;50.042;8.238;2022-10-01T06:50:46;1.83;;;1.50;;
20340;SDS011;10328;50.042;8.238;2022-10-01T06:53:14;3.50;;;2.67;;
20340;SDS011;10328;50.042;8.238;2022-10-01T06:55:41;2.70;;;2.23;;
20340;SDS011;10328;50.042;8.238;2022-10-01T06:58:18;2.67;;;1.97;;
20340;SDS011;10328;50.042;8.238;2022-10-01T07:00:46;3.30;;;2.23;;
20340;SDS011;10328;50.042;8.238;2022-10-01T07:03:14;3.40;;;2.17;;
20340;SDS011;10328;50.042;8.238;2022-10-01T07:05:44;3.83;;;2.47;;
20340;SDS011;10328;50.042;8.238;2022-10-01T07:08:11;2.83;;;2.17;;
20340;SDS011;10328;50.042;8.238;2022-10-01T07:10:38;3.17;;;2.13;;
20340;SDS011;10328;50.042;8.238;2022-10-01T07:13:06;2.20;;;1.63;;
20340;SDS011;10328;50.042;8.238;2022-10-01T07:15:33;2.17;;;1.70;;
20340;SDS011;10328;50.042;8.238;2022-10-01T07:18:00;1.73;;;1.40;;
20340;SDS011;10328;50.042;8.238;2022-10-01T07:20:26;2.13;;;1.53;;
20340;SDS011;10328;50.042;8.238;2022-10-01T07:22:57;1.67;;;1.50;;
20340;SDS011;10328;50.042;8.238;2022-10-01T07:25:24;1.67;;;1.30;;
20340;SDS011;10328;50.042;8.238;2022-10-01T07:27:58;1.97;;;1.33;;
20340;SDS011;10328;50.042;8.238;2022-10-01T07:30:26;1.57;;;1.20;;
20340;SDS011;10328;50.042;8.238;2022-10-01T07:32:53;1.50;;;1.30;;
20340;SDS011;10328;50.042;8.238;2022-10-01T07:35:19;1.53;;;1.27;;
20340;SDS011;10328;50.042;8.238;2022-10-01T07:37:46;1.40;;;1.30;;
20340;SDS011;10328;50.042;8.238;2022-10-01T07:40:13;1.60;;;1.13;;
20340;SDS011;10328;50.042;8.238;2022-10-01T07:42:50;1.20;;;1.10;;
20340;SDS011;10328;50.042;8.238;2022-10-01T07:45:20;1.17;;;1.07;;
20340;SDS011;10328;50.042;8.238;2022-10-01T07:47:54;1.30;;;1.20;;
20340;SDS011;10328;50.042;8.238;2022-10-01T07:50:21;1.30;;;1.20;;
20340;SDS011;10328;50.042;8.238;2022-10-01T07:52:54;1.73;;;1.10;;
20340;SDS011;10328;50.042;8.238;2022-10-01T07:55:21;1.43;;;1.03;;
20340;SDS011;10328;50.042;8.238;2022-10-01T07:57:52;1.63;;;0.90;;
20340;SDS011;10328;50.042;8.238;2022-10-01T08:00:20;1.10;;;0.90;;
20340;SDS011;10328;50.042;8.238;2022-10-01T08:02:51;1.20;;;0.97;;
20340;SDS011;10328;50.042;8.238;2022-10-01T08:05:21;1.63;;;1.10;;
20340;SDS011;10328;50.042;8.238;2022-10-01T08:07:50;1.33;;;1.00;;
20340;SDS011;10328;50.042;8.238;2022-10-01T08:10:17;1.53;;;0.93;;
20340;SDS011;10328;50.042;8.238;2022-10-01T08:12:44;1.37;;;1.00;;
20340;SDS011;10328;50.042;8.238;2022-10-01T08:15:11;1.40;;;0.90;;
20340;SDS011;10328;50.042;8.238;2022-10-01T08:17:39;1.70;;;1.00;;
20340;SDS011;10328;50.042;8.238;2022-10-01T08:20:07;1.57;;;0.70;;
20340;SDS011;10328;50.042;8.238;2022-10-01T08:22:34;1.03;;;0.83;;
20340;SDS011;10328;50.042;8.238;2022-10-01T08:25:07;1.53;;;1.00;;
20340;SDS011;10328;50.042;8.238;2022-10-01T08:27:33;1.63;;;1.13;;
20340;SDS011;10328;50.042;8.238;2022-10-01T08:30:00;3.13;;;1.33;;
20340;SDS011;10328;50.042;8.238;2022-10-01T08:32:26;2.20;;;1.03;;
20340;SDS011;10328;50.042;8.238;2022-10-01T08:34:53;2.30;;;1.17;;
20340;SDS011;10328;50.042;8.238;2022-10-01T08:37:23;2.57;;;1.10;;
20340;SDS011;10328;50.042;8.238;2022-10-01T08:39:50;1.73;;;1.20;;
20340;SDS011;10328;50.042;8.238;2022-10-01T08:45:03;1.73;;;1.17;;
20340;SDS011;10328;50.042;8.238;2022-10-01T08:47:37;1.77;;;1.20;;
20340;SDS011;10328;50.042;8.238;2022-10-01T08:50:05;1.93;;;0.93;;
20340;SDS011;10328;50.042;8.238;2022-10-01T08:52:39;1.97;;;1.13;;
20340;SDS011;10328;50.042;8.238;2022-10-01T08:55:13;2.10;;;0.87;;
20340;SDS011;10328;50.042;8.238;2022-10-01T08:57:44;3.47;;;1.00;;
20340;SDS011;10328;50.042;8.238;2022-10-01T09:00:17;1.10;;;1.00;;
20340;SDS011;10328;50.042;8.238;2022-10-01T09:02:44;1.27;;;1.07;;
20340;SDS011;10328;50.042;8.238;2022-10-01T09:07:59;1.20;;;0.90;;
20340;SDS011;10328;50.042;8.238;2022-10-01T09:10:42;1.07;;;0.87;;
20340;SDS011;10328;50.042;8.238;2022-10-01T09:16:19;1.47;;;0.97;;
20340;SDS011;10328;50.042;8.238;2022-10-01T09:21:56;2.47;;;1.00;;
20340;SDS011;10328;50.042;8.238;2022-10-01T09:27:25;1.53;;;0.90;;
20340;SDS011;10328;50.042;8.238;2022-10-01T09:30:03;1.27;;;1.10;;
20340;SDS011;10328;50.042;8.238;2022-10-01T09:32:35;2.77;;;1.13;;
20340;SDS011;10328;50.042;8.238;2022-10-01T09:35:23;2.30;;;1.10;;
20340;SDS011;10328;50.042;8.238;2022-10-01T09:37:53;1.20;;;0.80;;
20340;SDS011;10328;50.042;8.238;2022-10-01T09:40:26;1.30;;;0.90;;
20340;SDS011;10328;50.042;8.238;2022-10-01T09:43:00;1.97;;;1.10;;
20340;SDS011;10328;50.042;8.238;2022-10-01T09:45:27;1.30;;;0.83;;
20340;SDS011;10328;50.042;8.238;2022-10-01T09:47:56;1.87;;;1.00;;
20340;SDS011;10328;50.042;8.238;2022-10-01T09:50:33;1.73;;;0.90;;
20340;SDS011;10328;50.042;8.238;2022-10-01T09:53:04;2.10;;;1.10;;
20340;SDS011;10328;50.042;8.238;2022-10-01T09:55:41;1.33;;;0.80;;
20340;SDS011;10328;50.042;8.238;2022-10-01T09:58:16;1.40;;;0.97;;
20340;SDS011;10328;50.042;8.238;2022-10-01T10:00:44;1.47;;;0.80;;
20340;SDS011;10328;50.042;8.238;2022-10-01T10:03:20;1.33;;;0.80;;
20340;SDS011;10328;50.042;8.238;2022-10-01T10:05:52;1.20;;;0.90;;
20340;SDS011;10328;50.042;8.238;2022-10-01T10:08:20;1.27;;;1.03;;
20340;SDS011;10328;50.042;8.238;2022-10-01T10:10:56;1.10;;;1.00;;
20340;SDS011;10328;50.042;8.238;2022-10-01T10:13:47;0.73;;;0.70;;
20340;SDS011;10328;50.042;8.238;2022-10-01T10:16:19;1.73;;;0.60;;
20340;SDS011;10328;50.042;8.238;2022-10-01T10:19:02;1.00;;;0.90;;
20340;SDS011;10328;50.042;8.238;2022-10-01T10:21:32;0.87;;;0.80;;
20340;SDS011;10328;50.042;8.238;2022-10-01T10:24:01;1.50;;;0.97;;
20340;SDS011;10328;50.042;8.238;2022-10-01T10:26:33;1.27;;;0.80;;
20340;SDS011;10328;50.042;8.238;2022-10-01T10:29:05;0.80;;;0.70;;
20340;SDS011;10328;50.042;8.238;2022-10-01T10:31:44;1.30;;;0.90;;
20340;SDS011;10328;50.042;8.238;2022-10-01T10:37:02;1.07;;;0.97;;
20340;SDS011;10328;50.042;8.238;2022-10-01T10:39:34;1.00;;;0.87;;
20340;SDS011;10328;50.042;8.238;2022-10-01T10:42:03;1.50;;;0.90;;
20340;SDS011;10328;50.042;8.238;2022-10-01T10:44:31;1.40;;;0.80;;
20340;SDS011;10328;50.042;8.238;2022-10-01T10:47:02;1.00;;;0.90;;
20340;SDS011;10328;50.042;8.238;2022-10-01T10:49:37;1.40;;;1.20;;
20340;SDS011;10328;50.042;8.238;2022-10-01T10:52:18;1.30;;;1.10;;
20340;SDS011;10328;50.042;8.238;2022-10-01T10:54:57;1.10;;;0.80;;
20340;SDS011;10328;50.042;8.238;2022-10-01T10:57:26;1.47;;;0.90;;
20340;SDS011;10328;50.042;8.238;2022-10-01T10:59:57;1.03;;;0.80;;
20340;SDS011;10328;50.042;8.238;2022-10-01T11:02:30;0.90;;;0.80;;
20340;SDS011;10328;50.042;8.238;2022-10-01T11:05:00;1.57;;;0.73;;
20340;SDS011;10328;50.042;8.238;2022-10-01T11:07:29;1.60;;;1.00;;
20340;SDS011;10328;50.042;8.238;2022-10-01T11:10:04;1.20;;;0.93;;
20340;SDS011;10328;50.042;8.238;2022-10-01T11:12:59;1.20;;;0.90;;
20340;SDS011;10328;50.042;8.238;2022-10-01T11:18:57;1.17;;;0.90;;
20340;SDS011;10328;50.042;8.238;2022-10-01T11:26:53;0.97;;;0.80;;
20340;SDS011;10328;50.042;8.238;2022-10-01T11:29:30;1.57;;;1.03;;
20340;SDS011;10328;50.042;8.238;2022-10-01T11:32:12;2.07;;;0.97;;
20340;SDS011;10328;50.042;8.238;2022-10-01T11:40:02;0.83;;;0.73;;
20340;SDS011;10328;50.042;8.238;2022-10-01T11:42:39;2.07;;;0.90;;
20340;SDS011;10328;50.042;8.238;2022-10-01T11:45:21;1.50;;;0.80;;
20340;SDS011;10328;50.042;8.238;2022-10-01T11:47:55;1.53;;;0.93;;
20340;SDS011;10328;50.042;8.238;2022-10-01T11:52:56;1.90;;;0.70;;
20340;SDS011;10328;50.042;8.238;2022-10-01T11:55:26;1.10;;;0.80;;
20340;SDS011;10328;50.042;8.238;2022-10-01T11:58:32;2.03;;;0.93;;
20340;SDS011;10328;50.042;8.238;2022-10-01T12:01:39;1.33;;;0.80;;
20340;SDS011;10328;50.042;8.238;2022-10-01T12:06:54;1.40;;;0.90;;
20340;SDS011;10328;50.042;8.238;2022-10-01T12:12:18;0.80;;;0.73;;
20340;SDS011;10328;50.042;8.238;2022-10-01T12:14:49;1.17;;;0.90;;
20340;SDS011;10328;50.042;8.238;2022-10-01T12:17:21;1.33;;;0.80;;
20340;SDS011;10328;50.042;8.238;2022-10-01T12:19:56;2.53;;;0.80;;
20340;SDS011;10328;50.042;8.238;2022-10-01T12:22:26;1.00;;;0.80;;
20340;SDS011;10328;50.042;8.238;2022-10-01T12:24:56;1.83;;;0.90;;
20340;SDS011;10328;50.042;8.238;2022-10-01T12:30:19;1.23;;;0.80;;
20340;SDS011;10328;50.042;8.238;2022-10-01T12:41:11;1.23;;;0.90;;
20340;SDS011;10328;50.042;8.238;2022-10-01T12:46:48;1.30;;;0.80;;
20340;SDS011;10328;50.042;8.238;2022-10-01T13:00:58;0.63;;;0.63;;
20340;SDS011;10328;50.042;8.238;2022-10-01T13:03:37;1.27;;;0.90;;
20340;SDS011;10328;50.042;8.238;2022-10-01T13:09:05;1.57;;;1.03;;
20340;SDS011;10328;50.042;8.238;2022-10-01T13:11:44;1.00;;;0.80;;
20340;SDS011;10328;50.042;8.238;2022-10-01T13:14:32;1.83;;;0.70;;
20340;SDS011;10328;50.042;8.238;2022-10-01T13:20:09;1.07;;;0.97;;
20340;SDS011;10328;50.042;8.238;2022-10-01T13:25:32;0.87;;;0.77;;
20340;SDS011;10328;50.042;8.238;2022-10-01T13:28:09;0.60;;;0.60;;
20340;SDS011;10328;50.042;8.238;2022-10-01T13:30:59;0.97;;;0.70;;
20340;SDS011;10328;50.042;8.238;2022-10-01T13:33:28;2.90;;;0.80;;
20340;SDS011;10328;50.042;8.238;2022-10-01T13:36:01;0.80;;;0.80;;
20340;SDS011;10328;50.042;8.238;2022-10-01T13:38:38;0.60;;;0.60;;
20340;SDS011;10328;50.042;8.238;2022-10-01T13:41:16;0.93;;;0.83;;
20340;SDS011;10328;50.042;8.238;2022-10-01T13:43:50;0.90;;;0.80;;
20340;SDS011;10328;50.042;8.238;2022-10-01T13:46:30;1.03;;;0.80;;
20340;SDS011;10328;50.042;8.238;2022-10-01T13:49:02;0.87;;;0.73;;
20340;SDS011;10328;50.042;8.238;2022-10-01T13:51:36;1.00;;;0.90;;
20340;SDS011;10328;50.042;8.238;2022-10-01T13:54:03;2.03;;;0.60;;
20340;SDS011;10328;50.042;8.238;2022-10-01T13:56:34;1.73;;;0.87;;
20340;SDS011;10328;50.042;8.238;2022-10-01T13:59:03;0.87;;;0.70;;
20340;SDS011;10328;50.042;8.238;2022-10-01T14:01:40;0.70;;;0.60;;
20340;SDS011;10328;50.042;8.238;2022-10-01T14:07:14;1.02;;;0.70;;
20340;SDS011;10328;50.042;8.238;2022-10-01T14:09:47;0.60;;;0.60;;
20340;SDS011;10328;50.042;8.238;2022-10-01T14:12:19;1.40;;;0.60;;
20340;SDS011;10328;50.042;8.238;2022-10-01T14:15:12;1.33;;;0.77;;
20340;SDS011;10328;50.042;8.238;2022-10-01T14:18:04;0.50;;;0.50;;
20340;SDS011;10328;50.042;8.238;2022-10-01T14:21:21;0.63;;;0.50;;
20340;SDS011;10328;50.042;8.238;2022-10-01T14:23:30;0.83;;;0.67;;
20340;SDS011;10328;50.042;8.238;2022-10-01T14:34:46;0.77;;;0.60;;
20340;SDS011;10328;50.042;8.238;2022-10-01T14:37:20;0.67;;;0.60;;
20340;SDS011;10328;50.042;8.238;2022-10-01T14:39:58;0.55;;;0.47;;
20340;SDS011;10328;50.042;8.238;2022-10-01T14:42:34;0.77;;;0.73;;
20340;SDS011;10328;50.042;8.238;2022-10-01T14:45:00;0.63;;;0.63;;
20340;SDS011;10328;50.042;8.238;2022-10-01T14:47:27;0.77;;;0.50;;
20340;SDS011;10328;50.042;8.238;2022-10-01T14:50:07;1.53;;;0.63;;
20340;SDS011;10328;50.042;8.238;2022-10-01T14:52:36;1.13;;;0.60;;
20340;SDS011;10328;50.042;8.238;2022-10-01T14:55:05;1.75;;;0.90;;
20340;SDS011;10328;50.042;8.238;2022-10-01T14:57:33;1.63;;;0.70;;
20340;SDS011;10328;50.042;8.238;2022-10-01T15:00:03;0.87;;;0.70;;
20340;SDS011;10328;50.042;8.238;2022-10-01T15:02:46;1.23;;;0.67;;
20340;SDS011;10328;50.042;8.238;2022-10-01T15:05:21;1.13;;;0.67;;
20340;SDS011;10328;50.042;8.238;2022-10-01T15:08:08;0.90;;;0.70;;
20340;SDS011;10328;50.042;8.238;2022-10-01T15:10:39;1.43;;;0.63;;
20340;SDS011;10328;50.042;8.238;2022-10-01T15:13:07;0.63;;;0.60;;
20340;SDS011;10328;50.042;8.238;2022-10-01T15:15:37;0.77;;;0.50;;
20340;SDS011;10328;50.042;8.238;2022-10-01T15:18:05;0.63;;;0.63;;
20340;SDS011;10328;50.042;8.238;2022-10-01T15:20:32;4.40;;;0.87;;
20340;SDS011;10328;50.042;8.238;2022-10-01T15:22:59;1.20;;;0.63;;
20340;SDS011;10328;50.042;8.238;2022-10-01T15:25:28;1.03;;;0.63;;
20340;SDS011;10328;50.042;8.238;2022-10-01T15:27:55;2.10;;;0.60;;
20340;SDS011;10328;50.042;8.238;2022-10-01T15:30:23;1.67;;;0.70;;
20340;SDS011;10328;50.042;8.238;2022-10-01T15:32:50;1.00;;;0.70;;
20340;SDS011;10328;50.042;8.238;2022-10-01T15:35:18;0.93;;;0.70;;
20340;SDS011;10328;50.042;8.238;2022-10-01T15:37:46;1.80;;;0.90;;
20340;SDS011;10328;50.042;8.238;2022-10-01T15:40:20;1.53;;;0.87;;
20340;SDS011;10328;50.042;8.238;2022-10-01T15:43:09;1.40;;;0.80;;
20340;SDS011;10328;50.042;8.238;2022-10-01T15:45:39;0.90;;;0.57;;
20340;SDS011;10328;50.042;8.238;2022-10-01T15:48:18;1.33;;;0.60;;
20340;SDS011;10328;50.042;8.238;2022-10-01T15:50:58;1.00;;;0.60;;
20340;SDS011;10328;50.042;8.238;2022-10-01T15:53:26;1.83;;;0.80;;
20340;SDS011;10328;50.042;8.238;2022-10-01T15:55:54;3.17;;;1.10;;
20340;SDS011;10328;50.042;8.238;2022-10-01T15:58:26;0.60;;;0.60;;
20340;SDS011;10328;50.042;8.238;2022-10-01T16:03:37;1.30;;;0.77;;
20340;SDS011;10328;50.042;8.238;2022-10-01T16:06:06;1.70;;;0.77;;
20340;SDS011;10328;50.042;8.238;2022-10-01T16:11:23;2.10;;;1.07;;
20340;SDS011;10328;50.042;8.238;2022-10-01T16:13:52;2.03;;;1.10;;
20340;SDS011;10328;50.042;8.238;2022-10-01T16:16:44;4.30;;;0.87;;
20340;SDS011;10328;50.042;8.238;2022-10-01T16:19:29;2.60;;;0.80;;
20340;SDS011;10328;50.042;8.238;2022-10-01T16:27:33;1.47;;;0.70;;
20340;SDS011;10328;50.042;8.238;2022-10-01T16:30:10;2.47;;;0.90;;
20340;SDS011;10328;50.042;8.238;2022-10-01T16:32:44;0.93;;;0.80;;
20340;SDS011;10328;50.042;8.238;2022-10-01T16:35:14;1.07;;;0.70;;
20340;SDS011;10328;50.042;8.238;2022-10-01T16:37:41;0.60;;;0.60;;
20340;SDS011;10328;50.042;8.238;2022-10-01T16:40:09;1.30;;;0.70;;
20340;SDS011;10328;50.042;8.238;2022-10-01T16:42:41;1.80;;;1.00;;
20340;SDS011;10328;50.042;8.238;2022-10-01T16:45:11;2.87;;;0.63;;
20340;SDS011;10328;50.042;8.238;2022-10-01T16:47:41;1.47;;;1.03;;
20340;SDS011;10328;50.042;8.238;2022-10-01T16:50:11;0.77;;;0.70;;
20340;SDS011;10328;50.042;8.238;2022-10-01T16:52:39;1.33;;;1.00;;
20340;SDS011;10328;50.042;8.238;2022-10-01T16:55:20;1.63;;;0.77;;
20340;SDS011;10328;50.042;8.238;2022-10-01T16:57:48;1.42;;;0.80;;
20340;SDS011;10328;50.042;8.238;2022-10-01T17:00:15;1.47;;;0.90;;
20340;SDS011;10328;50.042;8.238;2022-10-01T17:02:43;1.63;;;1.00;;
20340;SDS011;10328;50.042;8.238;2022-10-01T17:05:18;1.03;;;0.70;;
20340;SDS011;10328;50.042;8.238;2022-10-01T17:07:47;2.27;;;1.10;;